createdAt,value
2023-02-17T00:02:11.825Z,27.00
2023-02-17T00:04:39.430Z,33.58
2023-02-17T00:07:07.024Z,34.30
2023-02-17T00:09:36.032Z,33.00
2023-02-17T00:12:03.669Z,39.50
2023-02-17T00:14:31.275Z,38.53
2023-02-17T00:16:58.906Z,31.77
2023-02-17T00:19:26.512Z,27.63
2023-02-17T00:21:56.030Z,31.60
2023-02-17T00:24:24.130Z,45.38
2023-02-17T00:26:53.258Z,35.85
2023-02-17T00:29:20.997Z,38.80
2023-02-17T00:31:48.859Z,41.17
2023-02-17T00:34:18.265Z,42.70
2023-02-17T00:36:45.922Z,27.70
2023-02-17T00:39:14.296Z,33.60
2023-02-17T00:41:42.178Z,39.00
2023-02-17T00:44:17.105Z,38.22
2023-02-17T00:46:44.884Z,40.83
2023-02-17T00:49:16.722Z,40.67
2023-02-17T00:51:45.055Z,39.55
2023-02-17T00:54:12.792Z,46.60
2023-02-17T00:56:40.980Z,43.80
2023-02-17T00:59:08.843Z,46.63
2023-02-17T01:01:38.954Z,39.95
2023-02-17T01:04:06.833Z,44.13
2023-02-17T01:06:36.455Z,52.20
2023-02-17T01:09:05.819Z,37.85
2023-02-17T01:11:34.817Z,43.30
2023-02-17T01:14:04.897Z,41.20
2023-02-17T01:16:35.283Z,38.40
2023-02-17T01:19:05.069Z,43.10
2023-02-17T01:24:01.939Z,54.85
2023-02-17T01:26:31.004Z,41.72
2023-02-17T01:28:59.079Z,42.10
2023-02-17T01:31:28.180Z,45.15
2023-02-17T01:33:57.732Z,49.35
2023-02-17T01:36:26.888Z,53.08
2023-02-17T01:38:54.544Z,42.97
2023-02-17T01:41:26.542Z,52.33
2023-02-17T01:44:09.784Z,46.45
2023-02-17T01:46:37.760Z,48.28
2023-02-17T01:49:08.608Z,54.90
2023-02-17T01:51:38.848Z,48.42
2023-02-17T01:54:08.680Z,48.65
2023-02-17T01:56:38.702Z,50.58
2023-02-17T01:59:11.103Z,48.17
2023-02-17T02:01:38.874Z,47.60
2023-02-17T02:04:07.404Z,50.20
2023-02-17T02:06:37.578Z,48.97
2023-02-17T02:09:08.113Z,56.92
2023-02-17T02:11:37.153Z,53.47
2023-02-17T02:14:06.769Z,41.08
2023-02-17T02:16:38.895Z,45.67
2023-02-17T02:19:24.612Z,51.28
2023-02-17T02:22:19.714Z,53.15
2023-02-17T02:24:55.709Z,46.10
2023-02-17T02:27:33.741Z,46.30
2023-02-17T02:30:36.897Z,46.85
2023-02-17T02:33:12.258Z,43.55
2023-02-17T02:35:46.687Z,44.03
2023-02-17T02:38:17.176Z,40.25
2023-02-17T02:40:48.805Z,42.03
2023-02-17T02:43:17.120Z,40.95
2023-02-17T02:45:44.837Z,42.90
2023-02-17T02:48:13.835Z,46.03
2023-02-17T02:50:52.917Z,39.63
2023-02-17T02:53:35.838Z,43.03
2023-02-17T02:56:07.578Z,42.78
2023-02-17T02:58:41.232Z,41.75
2023-02-17T03:01:14.006Z,39.67
2023-02-17T03:03:47.277Z,34.45
2023-02-17T03:06:20.046Z,40.97
2023-02-17T03:08:50.526Z,34.95
2023-02-17T03:11:32.223Z,39.03
2023-02-17T03:14:04.599Z,35.50
2023-02-17T03:16:32.533Z,46.78
2023-02-17T03:19:01.609Z,40.67
2023-02-17T03:21:33.588Z,29.02
2023-02-17T03:24:01.206Z,44.85
2023-02-17T03:26:28.873Z,39.33
2023-02-17T03:28:56.537Z,33.88
2023-02-17T03:31:24.293Z,40.63
2023-02-17T03:33:52.140Z,33.63
2023-02-17T03:36:21.102Z,44.25
2023-02-17T03:38:48.687Z,40.70
2023-02-17T03:41:16.342Z,37.35
2023-02-17T03:43:43.910Z,38.53
2023-02-17T03:46:12.452Z,43.30
2023-02-17T03:48:40.522Z,41.40
2023-02-17T03:51:13.039Z,41.58
2023-02-17T03:53:42.632Z,34.45
2023-02-17T03:56:10.868Z,40.10
2023-02-17T03:58:39.078Z,40.63
2023-02-17T04:01:07.581Z,37.65
2023-02-17T04:03:36.705Z,35.65
2023-02-17T04:06:04.907Z,36.40
2023-02-17T04:08:33.516Z,36.00
2023-02-17T04:11:03.553Z,40.88
2023-02-17T04:13:31.275Z,43.17
2023-02-17T04:15:59.105Z,36.03
2023-02-17T04:18:26.870Z,39.05
2023-02-17T04:20:55.484Z,42.30
2023-02-17T04:23:23.211Z,36.83
2023-02-17T04:25:51.092Z,42.28
2023-02-17T04:28:21.362Z,40.33
2023-02-17T04:30:51.737Z,40.45
2023-02-17T04:33:19.578Z,36.22
2023-02-17T04:35:48.643Z,42.22
2023-02-17T04:38:16.598Z,39.08
2023-02-17T04:40:44.249Z,38.38
2023-02-17T04:43:11.855Z,42.08
2023-02-17T04:45:40.847Z,38.83
2023-02-17T04:48:08.477Z,35.05
2023-02-17T04:50:36.071Z,48.00
2023-02-17T04:53:03.685Z,40.30
2023-02-17T04:55:31.420Z,38.47
2023-02-17T04:57:59.088Z,38.97
2023-02-17T05:00:27.056Z,43.42
2023-02-17T05:02:55.998Z,41.38
2023-02-17T05:05:23.673Z,39.25
2023-02-17T05:07:51.307Z,42.28
2023-02-17T05:10:19.864Z,49.05
2023-02-17T05:12:47.482Z,47.70
2023-02-17T05:15:15.187Z,39.42
2023-02-17T05:17:42.752Z,37.75
2023-02-17T05:20:12.757Z,41.00
2023-02-17T05:22:40.406Z,43.35
2023-02-17T05:25:08.275Z,42.50
2023-02-17T05:27:36.017Z,45.22
2023-02-17T05:30:03.900Z,43.75
2023-02-17T05:32:31.723Z,40.63
2023-02-17T05:34:59.358Z,41.95
2023-02-17T05:37:29.007Z,44.15
2023-02-17T05:39:56.666Z,46.50
2023-02-17T05:42:28.670Z,40.90
2023-02-17T05:44:56.512Z,44.97
2023-02-17T05:47:25.400Z,40.97
2023-02-17T05:49:54.255Z,38.78
2023-02-17T05:52:21.932Z,42.75
2023-02-17T05:54:50.894Z,43.92
2023-02-17T05:57:18.551Z,33.70
2023-02-17T05:59:46.152Z,36.28
2023-02-17T06:02:13.700Z,37.33
2023-02-17T06:04:41.295Z,35.33
2023-02-17T06:07:08.884Z,33.93
2023-02-17T06:09:36.556Z,35.20
2023-02-17T06:12:06.218Z,32.53
2023-02-17T06:14:33.877Z,35.42
2023-02-17T06:17:04.024Z,35.40
2023-02-17T06:19:31.739Z,35.50
2023-02-17T06:21:59.365Z,35.50
2023-02-17T06:24:27.014Z,36.53
2023-02-17T06:26:54.626Z,36.75
2023-02-17T06:29:23.526Z,28.85
2023-02-17T06:31:51.301Z,40.15
2023-02-17T06:34:19.022Z,35.17
2023-02-17T06:36:46.646Z,31.98
2023-02-17T06:39:14.262Z,32.38
2023-02-17T06:41:42.719Z,34.83
2023-02-17T06:44:10.430Z,32.75
2023-02-17T06:46:39.468Z,33.47
2023-02-17T06:49:07.106Z,35.42
2023-02-17T06:51:34.706Z,31.88
2023-02-17T06:54:02.381Z,32.83
2023-02-17T06:56:30.020Z,39.70
2023-02-17T06:58:57.655Z,34.13
2023-02-17T07:01:27.025Z,37.78
2023-02-17T07:03:56.626Z,35.72
2023-02-17T07:06:25.238Z,36.85
2023-02-17T07:08:53.349Z,34.67
2023-02-17T07:11:21.204Z,34.72
2023-02-17T07:13:48.956Z,39.00
2023-02-17T07:16:16.655Z,32.92
2023-02-17T07:18:44.478Z,35.83
2023-02-17T07:21:13.427Z,33.60
2023-02-17T07:23:41.006Z,35.03
2023-02-17T07:26:10.269Z,37.03
2023-02-17T07:28:38.853Z,42.13
2023-02-17T07:31:07.588Z,33.72
2023-02-17T07:33:35.719Z,33.03
2023-02-17T07:36:07.459Z,34.08
2023-02-17T07:38:37.348Z,35.28
2023-02-17T07:41:06.288Z,34.67
2023-02-17T07:43:34.117Z,35.63
2023-02-17T07:46:01.711Z,38.33
2023-02-17T07:48:29.304Z,35.23
2023-02-17T07:50:56.872Z,34.50
2023-02-17T07:53:24.643Z,32.63
2023-02-17T07:55:53.591Z,38.65
2023-02-17T07:58:21.131Z,35.65
2023-02-17T08:00:48.674Z,31.95
2023-02-17T08:03:16.215Z,33.40
2023-02-17T08:05:43.766Z,28.45
2023-02-17T08:08:28.765Z,35.63
2023-02-17T08:11:19.562Z,29.33
2023-02-17T08:13:47.232Z,32.40
2023-02-17T08:16:14.881Z,31.17
2023-02-17T08:18:42.570Z,33.87
2023-02-17T08:21:10.144Z,32.38
2023-02-17T08:23:37.735Z,30.38
2023-02-17T08:26:07.155Z,29.80
2023-02-17T08:28:34.995Z,27.90
2023-02-17T08:31:06.227Z,27.42
2023-02-17T08:33:33.926Z,23.58
2023-02-17T08:36:07.555Z,27.38
2023-02-17T08:38:35.366Z,27.83
2023-02-17T08:41:02.970Z,30.08
2023-02-17T08:43:32.042Z,31.70
2023-02-17T08:46:00.419Z,27.48
2023-02-17T08:48:28.186Z,25.38
2023-02-17T08:50:55.845Z,29.30
2023-02-17T08:53:23.511Z,25.90
2023-02-17T08:55:51.156Z,28.27
2023-02-17T08:58:18.836Z,30.85
2023-02-17T09:00:47.849Z,26.63
2023-02-17T09:03:15.579Z,30.75
2023-02-17T09:05:43.300Z,23.83
2023-02-17T09:08:11.150Z,33.00
2023-02-17T09:10:39.407Z,26.27
2023-02-17T09:13:07.139Z,22.63
2023-02-17T09:15:34.822Z,24.60
2023-02-17T09:18:04.049Z,23.70
2023-02-17T09:20:31.653Z,27.13
2023-02-17T09:22:59.273Z,21.80
2023-02-17T09:25:26.852Z,24.50
2023-02-17T09:27:54.535Z,22.50
2023-02-17T09:30:22.214Z,23.30
2023-02-17T09:32:49.880Z,25.77
2023-02-17T09:35:19.631Z,23.63
2023-02-17T09:37:47.293Z,22.75
2023-02-17T09:40:20.848Z,22.63
2023-02-17T09:42:48.685Z,23.13
2023-02-17T09:45:21.330Z,26.23
2023-02-17T09:47:51.095Z,19.70
2023-02-17T09:50:23.488Z,23.77
2023-02-17T09:52:55.904Z,24.25
2023-02-17T09:55:26.729Z,21.83
2023-02-17T09:57:58.301Z,22.83
2023-02-17T10:00:28.317Z,17.70
2023-02-17T10:03:00.438Z,20.73
2023-02-17T10:05:31.517Z,21.30
2023-02-17T10:08:03.697Z,21.42
2023-02-17T10:10:33.962Z,19.40
2023-02-17T10:13:03.775Z,22.15
2023-02-17T10:15:35.852Z,21.02
2023-02-17T10:18:10.070Z,23.88
2023-02-17T10:20:42.188Z,22.38
2023-02-17T10:23:14.741Z,20.80
2023-02-17T10:26:06.962Z,22.38
2023-02-17T10:28:51.581Z,23.05
2023-02-17T10:31:30.030Z,21.10
2023-02-17T10:34:03.966Z,23.10
2023-02-17T10:36:43.343Z,22.85
2023-02-17T10:39:15.296Z,17.77
2023-02-17T10:41:43.978Z,21.05
2023-02-17T10:44:15.993Z,22.08
2023-02-17T10:46:44.333Z,22.48
2023-02-17T10:49:20.381Z,20.13
2023-02-17T10:51:49.329Z,20.98
2023-02-17T10:54:32.075Z,24.40
2023-02-17T10:57:02.715Z,21.05
2023-02-17T10:59:33.615Z,22.50
2023-02-17T11:02:13.823Z,20.92
2023-02-17T11:04:42.583Z,22.75
2023-02-17T11:07:13.564Z,17.67
2023-02-17T11:09:46.132Z,18.50
2023-02-17T11:12:16.404Z,21.33
2023-02-17T11:14:47.131Z,14.75
2023-02-17T11:17:18.122Z,16.85
2023-02-17T11:19:55.937Z,16.65
2023-02-17T11:22:32.783Z,19.40
2023-02-17T11:25:01.297Z,18.48
2023-02-17T11:27:29.048Z,20.85
2023-02-17T11:30:06.895Z,20.98
2023-02-17T11:32:34.503Z,15.27
2023-02-17T11:35:05.088Z,17.33
2023-02-17T11:37:39.003Z,16.05
2023-02-17T11:40:26.067Z,14.47
2023-02-17T11:42:58.684Z,14.75
2023-02-17T11:45:29.010Z,19.58
2023-02-17T11:48:06.692Z,18.35
2023-02-17T11:50:42.709Z,18.42
2023-02-17T11:53:24.965Z,16.60
2023-02-17T11:56:01.986Z,17.35
2023-02-17T11:58:37.410Z,16.33
2023-02-17T12:01:16.799Z,16.03
2023-02-17T12:04:04.703Z,17.15
2023-02-17T12:06:39.804Z,16.23
2023-02-17T12:09:16.379Z,14.97
2023-02-17T12:11:48.702Z,18.80
2023-02-17T12:14:32.310Z,15.75
2023-02-17T12:17:04.044Z,15.10
2023-02-17T12:19:42.851Z,15.13
2023-02-17T12:22:18.284Z,17.23
2023-02-17T12:24:57.333Z,18.25
2023-02-17T12:27:32.688Z,17.60
2023-02-17T12:30:09.903Z,16.75
2023-02-17T12:32:50.059Z,15.97
2023-02-17T12:35:20.345Z,15.50
2023-02-17T12:37:52.029Z,13.10
2023-02-17T12:40:32.914Z,15.20
2023-02-17T12:43:03.073Z,18.33
2023-02-17T12:45:38.546Z,16.87
2023-02-17T12:48:08.461Z,17.65
2023-02-17T12:50:38.809Z,14.25
2023-02-17T12:53:14.231Z,14.20
2023-02-17T12:55:48.440Z,18.73
2023-02-17T12:58:18.628Z,12.23
2023-02-17T13:00:48.331Z,16.70
2023-02-17T13:03:16.141Z,17.33
2023-02-17T13:05:45.891Z,19.75
2023-02-17T13:08:17.731Z,16.15
2023-02-17T13:10:46.730Z,14.88
2023-02-17T13:13:26.326Z,16.35
2023-02-17T13:16:03.515Z,12.05
2023-02-17T13:18:32.742Z,12.50
2023-02-17T13:21:01.796Z,14.52
2023-02-17T13:23:41.004Z,14.73
2023-02-17T13:26:27.898Z,16.65
2023-02-17T13:29:20.270Z,13.82
2023-02-17T13:31:51.661Z,14.27
2023-02-17T13:34:28.585Z,18.70
2023-02-17T13:36:56.475Z,14.60
2023-02-17T13:39:38.411Z,16.98
2023-02-17T13:42:37.982Z,16.98
2023-02-17T13:47:41.664Z,14.25
2023-02-17T13:50:28.983Z,13.88
2023-02-17T13:52:56.965Z,14.30
2023-02-17T13:55:25.026Z,15.32
2023-02-17T14:00:25.444Z,14.82
2023-02-17T14:02:54.988Z,10.13
2023-02-17T14:05:37.906Z,13.93
2023-02-17T14:08:07.594Z,13.60
2023-02-17T14:10:35.928Z,14.90
2023-02-17T14:13:05.005Z,16.10
2023-02-17T14:15:32.751Z,11.82
2023-02-17T14:18:00.494Z,13.90
2023-02-17T14:20:30.886Z,14.20
2023-02-17T14:23:05.102Z,13.52
2023-02-17T14:25:34.914Z,13.65
2023-02-17T14:28:02.504Z,14.15
2023-02-17T14:30:33.491Z,12.38
2023-02-17T14:33:06.804Z,15.00
2023-02-17T14:35:35.663Z,11.73
2023-02-17T14:38:17.794Z,14.32
2023-02-17T14:40:45.380Z,11.57
2023-02-17T14:43:13.007Z,14.57
2023-02-17T14:45:42.006Z,14.13
2023-02-17T14:48:09.733Z,16.13
2023-02-17T14:50:42.261Z,12.52
2023-02-17T14:53:13.196Z,12.98
2023-02-17T14:55:47.074Z,12.52
2023-02-17T14:58:19.209Z,16.42
2023-02-17T15:00:48.611Z,10.48
2023-02-17T15:03:16.444Z,17.88
2023-02-17T15:05:44.278Z,14.63
2023-02-17T15:08:14.691Z,13.27
2023-02-17T15:10:42.369Z,14.85
2023-02-17T15:13:13.459Z,15.30
2023-02-17T15:15:44.749Z,16.40
2023-02-17T15:18:13.953Z,14.63
2023-02-17T15:20:43.646Z,11.82
2023-02-17T15:23:13.428Z,13.32
2023-02-17T15:25:41.115Z,17.85
2023-02-17T15:28:08.918Z,12.88
2023-02-17T15:30:37.404Z,10.82
2023-02-17T15:33:05.252Z,15.50
2023-02-17T15:35:34.250Z,11.90
2023-02-17T15:38:01.889Z,13.50
2023-02-17T15:40:30.735Z,14.30
2023-02-17T15:43:01.098Z,14.77
2023-02-17T15:45:28.773Z,16.10
2023-02-17T15:48:03.916Z,16.13
2023-02-17T15:50:31.807Z,16.48
2023-02-17T15:53:00.824Z,12.75
2023-02-17T15:55:29.244Z,19.63
2023-02-17T15:57:58.914Z,16.58
2023-02-17T16:00:28.650Z,15.32
2023-02-17T16:02:56.550Z,20.35
2023-02-17T16:05:27.393Z,11.90
2023-02-17T16:07:56.194Z,12.38
2023-02-17T16:10:27.398Z,12.77
2023-02-17T16:12:57.255Z,18.00
2023-02-17T16:15:26.605Z,15.15
2023-02-17T16:17:55.564Z,16.73
2023-02-17T16:20:25.860Z,12.32
2023-02-17T16:22:53.647Z,13.10
2023-02-17T16:25:22.480Z,17.67
2023-02-17T16:27:53.253Z,15.55
2023-02-17T16:30:23.175Z,12.20
2023-02-17T16:32:52.336Z,16.70
2023-02-17T16:35:21.424Z,12.82
2023-02-17T16:37:53.647Z,15.57
2023-02-17T16:40:22.759Z,22.88
2023-02-17T16:42:52.049Z,18.00
2023-02-17T16:45:21.953Z,15.68
2023-02-17T16:47:52.593Z,13.77
2023-02-17T16:50:24.658Z,12.45
2023-02-17T16:52:53.233Z,17.08
2023-02-17T16:55:22.329Z,15.77
2023-02-17T16:57:52.040Z,12.68
2023-02-17T17:00:22.562Z,14.95
2023-02-17T17:02:50.725Z,9.73
2023-02-17T17:05:19.509Z,13.90
2023-02-17T17:07:47.986Z,14.95
2023-02-17T17:10:20.309Z,12.75
2023-02-17T17:12:47.997Z,10.90
2023-02-17T17:15:17.675Z,16.88
2023-02-17T17:17:47.462Z,10.60
2023-02-17T17:20:17.658Z,13.93
2023-02-17T17:22:46.679Z,16.60
2023-02-17T17:25:14.635Z,16.48
2023-02-17T17:27:42.702Z,16.52
2023-02-17T17:30:18.578Z,17.75
2023-02-17T17:47:35.873Z,14.95
2023-02-17T17:50:03.537Z,11.38
2023-02-17T17:52:31.173Z,14.02
2023-02-17T17:54:58.776Z,10.90
2023-02-17T17:57:26.367Z,9.90
2023-02-17T17:59:54.073Z,9.30
2023-02-17T18:02:21.763Z,15.35
2023-02-17T18:04:50.827Z,10.48
2023-02-17T18:07:18.598Z,18.90
2023-02-17T18:09:46.474Z,13.32
2023-02-17T18:12:17.231Z,14.43
2023-02-17T18:14:45.306Z,14.93
2023-02-17T18:17:13.595Z,16.42
2023-02-17T18:19:41.563Z,15.85
2023-02-17T18:22:10.658Z,12.45
2023-02-17T18:24:38.280Z,14.00
2023-02-17T18:27:06.433Z,11.27
2023-02-17T18:29:34.012Z,19.38
2023-02-17T18:32:01.731Z,10.90
2023-02-17T18:34:29.551Z,19.05
2023-02-17T18:36:57.229Z,14.13
2023-02-17T18:39:26.258Z,13.82
2023-02-17T18:41:54.154Z,9.13
2023-02-17T18:44:21.829Z,12.70
2023-02-17T18:46:49.491Z,15.73
2023-02-17T18:49:17.193Z,9.35
2023-02-17T18:51:44.851Z,14.02
2023-02-17T18:54:12.850Z,13.60
2023-02-17T18:56:41.887Z,10.30
2023-02-17T18:59:09.583Z,16.38
2023-02-17T19:01:39.437Z,15.00
2023-02-17T19:06:35.090Z,19.73
2023-02-17T19:09:04.225Z,11.55
2023-02-17T19:11:32.172Z,13.02
2023-02-17T19:14:02.984Z,11.43
2023-02-17T19:16:32.265Z,10.02
2023-02-17T19:19:00.758Z,11.95
2023-02-17T19:21:28.889Z,13.82
2023-02-17T19:23:56.578Z,12.30
2023-02-17T19:26:24.267Z,8.43
2023-02-17T19:28:51.923Z,13.70
2023-02-17T19:31:21.763Z,14.55
2023-02-17T19:33:49.551Z,11.02
2023-02-17T19:36:18.625Z,15.77
2023-02-17T19:38:46.376Z,11.30
2023-02-17T19:41:15.245Z,12.57
2023-02-17T19:43:43.438Z,11.57
2023-02-17T19:46:12.421Z,17.80
2023-02-17T19:48:41.955Z,14.43
2023-02-17T19:51:10.392Z,12.07
2023-02-17T19:53:38.013Z,14.07
2023-02-17T19:56:11.976Z,13.05
2023-02-17T19:58:40.443Z,15.32
2023-02-17T20:01:09.193Z,10.45
2023-02-17T20:03:37.205Z,13.23
2023-02-17T20:06:08.762Z,14.40
2023-02-17T20:08:36.704Z,13.27
2023-02-17T20:11:07.786Z,14.18
2023-02-17T20:13:45.191Z,13.65
2023-02-17T20:16:15.191Z,8.43
2023-02-17T20:18:44.571Z,7.93
2023-02-17T20:21:15.530Z,14.52
2023-02-17T20:23:43.183Z,7.88
2023-02-17T20:26:12.513Z,13.70
2023-02-17T20:28:40.525Z,22.27
2023-02-17T20:31:08.640Z,14.73
2023-02-17T20:33:36.638Z,9.80
2023-02-17T20:36:05.250Z,8.85
2023-02-17T20:38:34.608Z,18.92
2023-02-17T20:41:02.903Z,11.00
2023-02-17T20:43:30.628Z,12.15
2023-02-17T20:45:58.589Z,13.50
2023-02-17T20:48:27.603Z,14.85
2023-02-17T20:50:55.718Z,14.75
2023-02-17T20:53:23.586Z,12.45
2023-02-17T20:55:52.660Z,14.45
2023-02-17T20:58:20.369Z,9.85
2023-02-17T21:00:48.471Z,9.43
2023-02-17T21:03:16.222Z,17.35
2023-02-17T21:05:43.874Z,9.93
2023-02-17T21:08:11.557Z,13.05
2023-02-17T21:10:39.896Z,14.50
2023-02-17T21:13:08.856Z,9.63
2023-02-17T21:15:36.450Z,9.75
2023-02-17T21:18:05.572Z,10.05
2023-02-17T21:20:33.223Z,9.73
2023-02-17T21:23:01.562Z,10.88
2023-02-17T21:25:29.180Z,9.93
2023-02-17T21:27:56.742Z,12.77
2023-02-17T21:30:26.292Z,7.85
2023-02-17T21:32:55.157Z,10.63
2023-02-17T21:35:22.827Z,9.48
2023-02-17T21:37:50.346Z,12.60
2023-02-17T21:40:18.023Z,10.15
2023-02-17T21:43:03.067Z,9.80
2023-02-17T21:45:38.438Z,13.02
2023-02-17T21:48:06.634Z,12.52
2023-02-17T21:50:34.392Z,17.45
2023-02-17T21:53:02.073Z,10.73
2023-02-17T21:55:29.715Z,9.20
2023-02-17T21:57:57.335Z,12.07
2023-02-17T22:00:25.276Z,7.50
2023-02-17T22:02:54.388Z,14.00
2023-02-17T22:05:22.023Z,6.50
2023-02-17T22:07:49.943Z,8.93
2023-02-17T22:10:18.411Z,11.63
2023-02-17T22:12:45.983Z,12.10
2023-02-17T22:15:15.988Z,8.45
2023-02-17T22:17:44.012Z,8.35
2023-02-17T22:20:15.117Z,10.38
2023-02-17T22:22:42.734Z,10.77
2023-02-17T22:25:10.400Z,10.32
2023-02-17T22:27:37.993Z,10.10
2023-02-17T22:30:06.917Z,9.27
2023-02-17T22:32:34.583Z,6.25
2023-02-17T22:35:02.229Z,5.60
2023-02-17T22:37:31.275Z,9.82
2023-02-17T22:39:59.161Z,10.85
2023-02-17T22:42:26.919Z,6.65
2023-02-17T22:44:54.593Z,9.32
2023-02-17T22:47:22.290Z,10.10
2023-02-17T22:49:49.907Z,9.68
2023-02-17T22:52:17.623Z,8.38
2023-02-17T22:54:46.711Z,6.50
2023-02-17T22:57:14.421Z,8.85
2023-02-17T22:59:42.043Z,11.00
2023-02-17T23:02:09.721Z,9.27
2023-02-17T23:04:37.351Z,7.80
2023-02-17T23:07:04.979Z,11.57
2023-02-17T23:09:32.563Z,10.07
2023-02-17T23:12:01.633Z,7.18
2023-02-17T23:14:32.072Z,8.38
2023-02-17T23:17:01.387Z,8.05
2023-02-17T23:19:30.102Z,11.00
2023-02-17T23:21:59.125Z,8.98
2023-02-17T23:24:27.623Z,9.32
2023-02-17T23:26:56.718Z,9.20
2023-02-17T23:29:26.023Z,4.25
2023-02-17T23:31:54.017Z,8.68
2023-02-17T23:34:21.892Z,8.73
2023-02-17T23:36:49.854Z,7.78
2023-02-17T23:39:17.981Z,7.03
2023-02-17T23:41:45.658Z,7.53
2023-02-17T23:44:14.501Z,7.05
2023-02-17T23:46:44.587Z,10.83
2023-02-17T23:49:14.405Z,11.57
2023-02-17T23:51:42.601Z,6.65
2023-02-17T23:54:10.272Z,5.95
2023-02-17T23:56:38.187Z,8.30
2023-02-17T23:59:06.623Z,10.20
